Saturday, December 15, 2018, 1:18 PM EST
Back to Local

KGNR, Greenville

Location: Greenville, ME, United States Lat: 45.467
Local Time: 1:18 PM EST (18:18 GMT) Lon: -69.583
Time Zone: US/Eastern Elev: 1400 ft

Show me the last for .
Show Coded

Time T Td Feel RH Dir Speed Gust Alt SLP Vis Weather Sky Remarks
2018-12-15 12:56 36 25 24 63 320° 15 25 30.06 30.11 0 6-hr Min Temp (1pm): 34.0°F
6-hr Max Temp (1pm): 39.0°F
2018-12-15 11:56 38 25 28 59 310° 12 21 30.06 30.11 0 None
2018-12-15 10:56 37 25 30 61 310° 9 - 30.05 30.10 0 None
2018-12-15 09:56 37 25 31 61 290° 8 - 30.06 30.11 0 None
2018-12-15 08:56 34 25 22 69 290° 13 24 30.05 30.10 0 Peak wind: 29 mph (26 kts) from 320° at 22 min
2018-12-15 07:56 37 27 25 66 290° 14 25 30.02 30.07 0 None
2018-12-15 06:56 36 29 29 75 280° 9 - 30.00 30.05 0 6-hr Min Temp (7am): 28.9°F
6-hr Max Temp (7am): 36.0°F
2018-12-15 05:56 34 30 - 85 - Calm - 29.97 30.03 0 None
2018-12-15 04:56 32 29 - 88 - Calm - 29.96 30.01 0 None
2018-12-15 03:56 30 27 - 88 - Calm - 29.97 30.03 0 None
2018-12-15 02:56 30 27 - 88 - Calm - 29.99 30.04 0 None
2018-12-15 01:56 30 26 - 84 - Calm - 29.99 30.05 0 None
2018-12-15 00:56 29 24 23 81 110° 6 - 30.00 30.05 0 6-hr Min Temp (1am): 28.9°F
6-hr Max Temp (1am): 30.0°F
2018-12-14 23:56 30 25 26 81 160° 3 - 30.01 30.07 0 24-hr Min Temp (12am): 9.0°F
24-hr Max Temp (12am): 30.0°F
2018-12-14 22:56 30 25 25 81 170° 5 - 30.05 30.11 0 None
2018-12-14 21:56 29 25 24 84 130° 5 - 30.08 30.14 0 None
2018-12-14 20:56 30 24 24 78 140° 6 - 30.12 30.18 0 None
2018-12-14 19:56 29 24 23 81 160° 6 - 30.14 30.21 0 None
2018-12-14 18:56 29 24 23 81 150° 6 - 30.17 30.24 0 6-hr Min Temp (7pm): 27.0°F
6-hr Max Temp (7pm): 28.9°F
2018-12-14 17:56 28 23 22 81 160° 6 - 30.19 30.26 0 None
2018-12-14 16:56 28 22 24 77 170° 3 - 30.21 30.28 0 None
2018-12-14 15:56 28 21 21 74 150° 7 - 30.21 30.28 0 None
2018-12-14 14:56 28 21 20 74 140° 8 - 30.24 30.31 0 None
2018-12-14 13:56 28 19 20 68 140° 8 - 30.25 30.32 0 None

Support USWX by starting your Amazon purchase here.